createdAt,value
2017-05-20T00:01:54.483Z,15.30
2017-05-20T00:04:23.196Z,16.14
2017-05-20T00:06:51.511Z,16.82
2017-05-20T00:09:19.829Z,15.60
2017-05-20T00:11:48.163Z,15.54
2017-05-20T00:14:16.476Z,15.92
2017-05-20T00:16:44.805Z,16.10
2017-05-20T00:19:13.133Z,14.04
2017-05-20T00:21:41.453Z,14.32
2017-05-20T00:24:09.768Z,13.92
2017-05-20T00:26:38.087Z,13.90
2017-05-20T00:29:06.462Z,13.94
2017-05-20T00:31:34.774Z,14.96
2017-05-20T00:34:03.116Z,14.14
2017-05-20T00:36:31.431Z,15.32
2017-05-20T00:38:59.787Z,15.16
2017-05-20T00:41:28.119Z,14.96
2017-05-20T00:43:56.436Z,13.64
2017-05-20T00:46:24.748Z,14.40
2017-05-20T00:48:53.073Z,16.64
2017-05-20T00:51:21.392Z,14.22
2017-05-20T00:53:49.709Z,14.98
2017-05-20T00:56:18.028Z,14.62
2017-05-20T00:58:46.343Z,14.34
2017-05-20T01:01:14.665Z,13.68
2017-05-20T01:03:43.243Z,13.84
2017-05-20T01:06:11.559Z,13.58
2017-05-20T01:08:39.892Z,14.86
2017-05-20T01:11:08.223Z,14.66
2017-05-20T01:13:36.552Z,14.16
2017-05-20T01:16:04.872Z,13.92
2017-05-20T01:18:33.199Z,14.60
2017-05-20T01:21:01.516Z,14.38
2017-05-20T01:23:29.832Z,14.94
2017-05-20T01:25:58.156Z,13.70
2017-05-20T01:28:26.473Z,14.72
2017-05-20T01:30:54.796Z,13.46
2017-05-20T01:33:23.264Z,15.12
2017-05-20T01:35:51.579Z,14.40
2017-05-20T01:38:19.891Z,14.42
2017-05-20T01:40:48.219Z,15.88
2017-05-20T01:43:16.527Z,15.36
2017-05-20T01:45:44.836Z,15.44
2017-05-20T01:48:13.167Z,14.60
2017-05-20T01:50:41.480Z,13.70
2017-05-20T01:53:09.791Z,13.64
2017-05-20T01:55:38.107Z,14.44
2017-05-20T01:58:06.424Z,13.96
2017-05-20T02:00:34.740Z,13.36
2017-05-20T02:03:03.068Z,14.82
2017-05-20T02:05:31.376Z,13.22
2017-05-20T02:07:59.690Z,14.84
2017-05-20T02:10:28.015Z,12.54
2017-05-20T02:12:56.324Z,12.38
2017-05-20T02:15:24.644Z,13.20
2017-05-20T02:17:52.972Z,12.04
2017-05-20T02:20:21.300Z,15.04
2017-05-20T02:22:49.613Z,14.38
2017-05-20T02:25:17.936Z,12.84
2017-05-20T02:27:46.255Z,14.86
2017-05-20T02:30:14.572Z,14.38
2017-05-20T02:32:42.891Z,15.32
2017-05-20T02:35:11.203Z,15.98
2017-05-20T02:37:39.517Z,17.68
2017-05-20T02:40:07.861Z,17.16
2017-05-20T02:42:36.176Z,17.74
2017-05-20T02:45:04.536Z,18.92
2017-05-20T02:47:32.854Z,18.88
2017-05-20T02:50:01.159Z,18.46
2017-05-20T02:52:29.471Z,18.02
2017-05-20T02:54:57.792Z,18.26
2017-05-20T02:57:26.115Z,18.94
2017-05-20T02:59:54.429Z,18.68
2017-05-20T03:02:22.759Z,20.04
2017-05-20T03:04:51.076Z,19.72
2017-05-20T03:07:19.393Z,19.50
2017-05-20T03:09:47.886Z,16.34
2017-05-20T03:12:16.214Z,16.36
2017-05-20T03:14:44.523Z,21.18
2017-05-20T03:17:12.843Z,18.10
2017-05-20T03:19:41.159Z,17.76
2017-05-20T03:22:09.481Z,16.16
2017-05-20T03:24:37.803Z,16.96
2017-05-20T03:27:06.120Z,17.34
2017-05-20T03:29:34.438Z,15.24
2017-05-20T03:32:02.768Z,18.02
2017-05-20T03:34:31.083Z,16.10
2017-05-20T03:36:59.400Z,16.00
2017-05-20T03:39:27.732Z,14.70
2017-05-20T03:41:56.060Z,16.42
2017-05-20T03:44:24.383Z,13.66
2017-05-20T03:46:52.708Z,15.24
2017-05-20T03:49:21.028Z,14.46
2017-05-20T03:51:49.341Z,14.22
2017-05-20T03:54:17.672Z,15.58
2017-05-20T03:56:45.996Z,17.88
2017-05-20T03:59:14.405Z,15.96
2017-05-20T04:01:42.750Z,14.56
2017-05-20T04:04:11.069Z,12.98
2017-05-20T04:06:39.380Z,15.22
2017-05-20T04:09:07.705Z,11.52
2017-05-20T04:11:36.033Z,11.60
2017-05-20T04:14:04.344Z,12.48
2017-05-20T04:16:32.671Z,11.20
2017-05-20T04:19:00.987Z,12.16
2017-05-20T04:21:29.399Z,10.84
2017-05-20T04:23:57.722Z,9.96
2017-05-20T04:26:26.028Z,10.10
2017-05-20T04:28:54.332Z,8.90
2017-05-20T04:31:22.645Z,8.82
2017-05-20T04:33:50.952Z,9.10
2017-05-20T04:36:19.263Z,8.64
2017-05-20T04:38:47.579Z,8.56
2017-05-20T04:41:15.892Z,8.30
2017-05-20T04:43:44.202Z,8.56
2017-05-20T04:46:12.519Z,7.38
2017-05-20T04:48:40.836Z,6.90
2017-05-20T04:51:09.140Z,6.58
2017-05-20T04:53:37.456Z,7.96
2017-05-20T04:56:05.759Z,6.92
2017-05-20T04:58:34.139Z,7.26
2017-05-20T05:01:02.455Z,7.24
2017-05-20T05:03:30.768Z,6.38
2017-05-20T05:05:59.071Z,7.64
2017-05-20T05:08:27.392Z,8.88
2017-05-20T05:10:55.703Z,6.36
2017-05-20T05:13:24.016Z,6.64
2017-05-20T05:15:52.336Z,6.74
2017-05-20T05:18:20.643Z,6.76
2017-05-20T05:20:48.951Z,7.26
2017-05-20T05:23:17.276Z,7.80
2017-05-20T05:25:45.583Z,6.18
2017-05-20T05:28:13.893Z,7.48
2017-05-20T05:30:42.210Z,6.28
2017-05-20T05:33:10.512Z,6.84
2017-05-20T05:35:38.827Z,12.06
2017-05-20T05:38:07.146Z,7.76
2017-05-20T05:40:35.448Z,5.48
2017-05-20T05:43:03.764Z,5.20
2017-05-20T05:45:32.092Z,8.14
2017-05-20T05:48:00.407Z,5.72
2017-05-20T05:50:28.723Z,8.86
2017-05-20T05:52:57.042Z,6.18
2017-05-20T05:55:25.348Z,5.96
2017-05-20T05:57:53.655Z,4.48
2017-05-20T06:00:21.987Z,4.86
2017-05-20T06:02:50.328Z,6.38
2017-05-20T06:07:56.116Z,6.12
2017-05-20T06:10:24.432Z,6.58
2017-05-20T06:12:52.740Z,4.40
2017-05-20T06:15:21.068Z,8.62
2017-05-20T06:17:49.382Z,6.28
2017-05-20T06:20:17.697Z,4.30
2017-05-20T06:22:46.017Z,5.02
2017-05-20T06:25:14.328Z,4.62
2017-05-20T06:27:42.643Z,7.00
2017-05-20T06:30:10.985Z,7.62
2017-05-20T06:32:39.301Z,5.60
2017-05-20T06:35:07.610Z,4.58
2017-05-20T06:37:35.923Z,7.36
2017-05-20T06:40:04.233Z,4.14
2017-05-20T06:42:32.547Z,4.44
2017-05-20T06:45:00.860Z,6.54
2017-05-20T06:47:29.165Z,4.04
2017-05-20T06:49:57.476Z,3.94
2017-05-20T06:52:25.884Z,4.22
2017-05-20T06:54:54.192Z,6.22
2017-05-20T06:57:22.507Z,3.58
2017-05-20T06:59:50.839Z,5.48
2017-05-20T07:02:19.159Z,3.68
2017-05-20T07:04:47.464Z,5.76
2017-05-20T07:07:15.788Z,4.16
2017-05-20T07:09:44.092Z,3.30
2017-05-20T07:12:12.395Z,4.00
2017-05-20T07:14:40.712Z,3.36
2017-05-20T07:17:09.024Z,5.68
2017-05-20T07:19:37.332Z,3.96
2017-05-20T07:22:05.660Z,5.16
2017-05-20T07:24:33.977Z,3.94
2017-05-20T07:27:02.284Z,4.34
2017-05-20T07:29:30.607Z,3.50
2017-05-20T07:31:58.936Z,6.32
2017-05-20T07:34:27.244Z,4.28
2017-05-20T07:36:55.560Z,3.86
2017-05-20T07:39:23.875Z,4.78
2017-05-20T07:41:52.187Z,3.86
2017-05-20T07:44:20.499Z,7.18
2017-05-20T07:46:48.811Z,5.10
2017-05-20T07:49:17.128Z,4.04
2017-05-20T07:51:45.447Z,3.02
2017-05-20T07:54:13.764Z,3.76
2017-05-20T07:56:42.077Z,3.46
2017-05-20T07:59:10.546Z,3.40
2017-05-20T08:01:38.856Z,7.44
2017-05-20T08:04:07.264Z,3.06
2017-05-20T08:06:35.576Z,6.42
2017-05-20T08:09:03.893Z,4.28
2017-05-20T08:11:32.746Z,3.70
2017-05-20T08:14:01.095Z,3.94
2017-05-20T08:16:29.404Z,4.22
2017-05-20T08:18:57.725Z,5.06
2017-05-20T08:21:26.044Z,3.80
2017-05-20T08:23:54.354Z,4.46
2017-05-20T08:26:22.655Z,4.40
2017-05-20T08:28:50.965Z,4.70
2017-05-20T08:31:19.272Z,3.52
2017-05-20T08:33:47.576Z,7.42
2017-05-20T08:36:15.910Z,5.08
2017-05-20T08:38:44.224Z,3.00
2017-05-20T08:41:12.552Z,5.18
2017-05-20T08:43:40.985Z,8.12
2017-05-20T08:46:09.312Z,11.36
2017-05-20T08:48:37.628Z,21.74
2017-05-20T08:51:05.946Z,4.38
2017-05-20T08:53:34.254Z,4.54
2017-05-20T08:56:02.563Z,6.36
2017-05-20T08:58:30.889Z,4.72
2017-05-20T09:00:59.205Z,4.20
2017-05-20T09:03:27.511Z,4.18
2017-05-20T09:05:55.841Z,16.78
2017-05-20T09:08:24.153Z,3.88
2017-05-20T09:10:52.471Z,5.02
2017-05-20T09:13:20.789Z,4.80
2017-05-20T09:15:49.095Z,4.36
2017-05-20T09:18:17.519Z,4.50
2017-05-20T09:20:46.039Z,4.20
2017-05-20T09:23:14.360Z,12.22
2017-05-20T09:25:42.668Z,4.30
2017-05-20T09:28:10.988Z,3.78
2017-05-20T09:30:39.293Z,4.72
2017-05-20T09:33:07.599Z,4.16
2017-05-20T09:35:35.927Z,4.76
2017-05-20T09:38:04.232Z,4.26
2017-05-20T09:40:32.539Z,6.26
2017-05-20T09:43:00.855Z,6.08
2017-05-20T09:45:29.155Z,5.62
2017-05-20T09:47:57.458Z,4.58
2017-05-20T09:50:25.771Z,3.88
2017-05-20T09:52:54.081Z,4.34
2017-05-20T09:55:22.386Z,4.20
2017-05-20T09:57:50.707Z,2.92
2017-05-20T10:00:19.007Z,4.58
2017-05-20T10:02:47.311Z,4.22
2017-05-20T10:05:15.628Z,3.18
2017-05-20T10:07:43.933Z,3.48
2017-05-20T10:10:12.261Z,4.20
2017-05-20T10:12:40.582Z,8.96
2017-05-20T10:15:08.888Z,4.00
2017-05-20T10:17:37.192Z,4.78
2017-05-20T10:20:05.513Z,3.56
2017-05-20T10:22:33.828Z,2.98
2017-05-20T10:25:02.138Z,5.02
2017-05-20T10:27:30.454Z,2.48
2017-05-20T10:29:58.772Z,3.16
2017-05-20T10:32:27.092Z,4.38
2017-05-20T10:34:55.402Z,3.60
2017-05-20T10:37:23.713Z,3.58
2017-05-20T10:39:52.021Z,3.78
2017-05-20T10:42:20.339Z,3.82
2017-05-20T10:44:48.647Z,4.44
2017-05-20T10:47:16.957Z,4.94
2017-05-20T10:49:45.292Z,4.12
2017-05-20T10:52:13.608Z,4.68
2017-05-20T10:54:41.945Z,4.54
2017-05-20T10:57:10.286Z,4.56
2017-05-20T10:59:38.744Z,16.00
2017-05-20T11:02:07.051Z,6.38
2017-05-20T11:04:35.402Z,4.72
2017-05-20T11:07:03.721Z,4.66
2017-05-20T11:09:32.072Z,5.02
2017-05-20T11:12:00.388Z,5.12
2017-05-20T11:14:28.700Z,4.36
2017-05-20T11:16:57.008Z,4.68
2017-05-20T11:19:25.328Z,4.58
2017-05-20T11:21:53.636Z,5.60
2017-05-20T11:24:21.940Z,5.60
2017-05-20T11:26:50.253Z,5.14
2017-05-20T11:29:18.564Z,5.30
2017-05-20T11:31:46.871Z,6.58
2017-05-20T11:34:15.180Z,5.62
2017-05-20T11:36:43.494Z,6.40
2017-05-20T11:39:11.811Z,6.04
2017-05-20T11:41:40.124Z,6.40
2017-05-20T11:44:08.424Z,6.40
2017-05-20T11:46:36.727Z,6.52
2017-05-20T11:49:05.041Z,7.24
2017-05-20T11:51:33.352Z,6.50
2017-05-20T11:54:01.668Z,6.06
2017-05-20T11:56:29.983Z,5.94
2017-05-20T11:58:58.298Z,7.80
2017-05-20T12:01:26.607Z,7.88
2017-05-20T12:03:54.935Z,6.46
2017-05-20T12:06:23.294Z,6.78
2017-05-20T12:08:51.596Z,5.24
2017-05-20T12:11:19.924Z,5.78
2017-05-20T12:13:48.265Z,5.10
2017-05-20T12:16:16.583Z,7.16
2017-05-20T12:18:44.900Z,4.00
2017-05-20T12:21:13.212Z,5.24
2017-05-20T12:23:41.650Z,5.16
2017-05-20T12:26:10.052Z,4.94
2017-05-20T12:28:38.364Z,4.30
2017-05-20T12:31:06.682Z,5.78
2017-05-20T12:33:35.180Z,4.36
2017-05-20T12:36:03.488Z,5.00
2017-05-20T12:38:31.795Z,4.90
2017-05-20T12:41:00.115Z,5.28
2017-05-20T12:43:28.496Z,5.78
2017-05-20T12:45:56.819Z,5.54
2017-05-20T12:48:25.136Z,4.88
2017-05-20T12:50:53.461Z,5.44
2017-05-20T12:53:21.767Z,5.36
2017-05-20T12:55:50.080Z,6.28
2017-05-20T12:58:18.392Z,4.20
2017-05-20T13:00:46.757Z,4.46
2017-05-20T13:03:15.108Z,35.02
2017-05-20T13:05:43.421Z,5.78
2017-05-20T13:08:11.743Z,4.84
2017-05-20T13:10:40.065Z,4.78
2017-05-20T13:13:08.380Z,5.24
2017-05-20T13:15:36.691Z,5.36
2017-05-20T13:18:05.011Z,5.78
2017-05-20T13:20:33.320Z,5.86
2017-05-20T13:23:01.671Z,6.96
2017-05-20T13:25:29.992Z,5.42
2017-05-20T13:27:58.296Z,5.22
2017-05-20T13:30:26.603Z,5.82
2017-05-20T13:32:54.921Z,6.90
2017-05-20T13:35:23.235Z,7.34
2017-05-20T13:37:51.539Z,9.54
2017-05-20T13:40:19.863Z,4.22
2017-05-20T13:42:48.188Z,5.80
2017-05-20T13:45:16.512Z,4.84
2017-05-20T13:47:44.846Z,5.08
2017-05-20T13:50:13.163Z,5.28
2017-05-20T13:52:41.484Z,5.58
2017-05-20T13:55:09.799Z,5.08
2017-05-20T13:57:38.112Z,4.34
2017-05-20T14:00:06.428Z,4.72
2017-05-20T14:02:34.847Z,5.04
2017-05-20T14:05:03.203Z,4.82
2017-05-20T14:07:31.572Z,4.72
2017-05-20T14:09:59.884Z,4.62
2017-05-20T14:12:28.200Z,5.20
2017-05-20T14:14:56.507Z,5.28
2017-05-20T14:17:24.824Z,5.72
2017-05-20T14:19:53.132Z,5.50
2017-05-20T14:22:21.435Z,5.40
2017-05-20T14:24:49.755Z,6.02
2017-05-20T14:27:18.060Z,5.92
2017-05-20T14:29:46.374Z,5.46
2017-05-20T14:32:14.687Z,6.84
2017-05-20T14:34:43.053Z,5.88
2017-05-20T14:37:11.367Z,5.82
2017-05-20T14:39:39.692Z,6.86
2017-05-20T14:42:07.995Z,6.12
2017-05-20T14:44:36.303Z,6.34
2017-05-20T14:47:04.621Z,5.66
2017-05-20T14:49:32.929Z,6.84
2017-05-20T14:52:01.236Z,5.62
2017-05-20T14:54:29.561Z,6.46
2017-05-20T14:56:57.875Z,5.74
2017-05-20T14:59:26.186Z,6.16
2017-05-20T15:01:54.500Z,7.96
2017-05-20T15:04:22.803Z,6.40
2017-05-20T15:06:51.215Z,6.42
2017-05-20T15:09:19.537Z,6.60
2017-05-20T15:11:47.847Z,7.14
2017-05-20T15:14:16.158Z,5.14
2017-05-20T15:16:44.471Z,5.94
2017-05-20T15:19:12.780Z,5.80
2017-05-20T15:21:41.091Z,5.16
2017-05-20T15:24:09.404Z,5.60
2017-05-20T15:26:38.096Z,5.92
2017-05-20T15:29:06.406Z,7.62
2017-05-20T15:31:34.824Z,6.42
2017-05-20T15:34:03.152Z,5.74
2017-05-20T15:36:31.471Z,10.40
2017-05-20T15:38:59.791Z,7.20
2017-05-20T15:41:28.108Z,6.84
2017-05-20T15:43:56.468Z,6.96
2017-05-20T15:46:24.959Z,7.40
2017-05-20T15:48:53.278Z,7.48
2017-05-20T15:51:21.616Z,6.16
2017-05-20T15:53:49.951Z,9.02
2017-05-20T15:56:18.286Z,6.70
2017-05-20T15:58:46.611Z,6.42
2017-05-20T16:01:14.932Z,5.56
2017-05-20T16:03:43.243Z,4.90
2017-05-20T16:06:11.608Z,4.56
2017-05-20T16:08:39.924Z,5.32
2017-05-20T16:11:08.232Z,4.52
2017-05-20T16:13:36.560Z,4.20
2017-05-20T16:16:14.821Z,6.94
2017-05-20T16:18:48.318Z,4.60
2017-05-20T16:21:16.825Z,4.50
2017-05-20T16:23:45.141Z,3.94
2017-05-20T16:26:14.647Z,4.32
2017-05-20T16:28:42.960Z,3.58
2017-05-20T16:31:11.365Z,15.76
2017-05-20T16:33:41.781Z,3.94
2017-05-20T16:36:10.219Z,4.42
2017-05-20T16:38:38.528Z,4.66
2017-05-20T16:41:06.843Z,3.90
2017-05-20T16:43:35.161Z,4.06
2017-05-20T16:46:03.541Z,5.94
2017-05-20T16:48:31.851Z,6.08
2017-05-20T16:51:00.176Z,4.58
2017-05-20T16:53:28.498Z,3.86
2017-05-20T16:55:56.811Z,3.94
2017-05-20T16:58:25.134Z,4.28
2017-05-20T17:00:53.435Z,4.04
2017-05-20T17:03:21.756Z,3.60
2017-05-20T17:05:50.286Z,3.52
2017-05-20T17:08:18.611Z,4.42
2017-05-20T17:10:46.921Z,4.90
2017-05-20T17:13:15.244Z,5.96
2017-05-20T17:15:43.551Z,4.38
2017-05-20T17:18:11.863Z,5.08
2017-05-20T17:20:41.178Z,6.62
2017-05-20T17:23:10.216Z,5.36
2017-05-20T17:25:38.548Z,4.70
2017-05-20T17:28:06.860Z,4.52
2017-05-20T17:30:35.252Z,4.30
2017-05-20T17:33:03.571Z,4.22
2017-05-20T17:35:31.889Z,4.76
2017-05-20T17:38:00.198Z,6.06
2017-05-20T17:40:28.519Z,6.92
2017-05-20T17:42:56.825Z,3.94
2017-05-20T17:45:25.141Z,4.50
2017-05-20T17:47:53.452Z,5.48
2017-05-20T17:50:21.764Z,4.60
2017-05-20T17:52:50.071Z,4.52
2017-05-20T17:55:18.402Z,4.10
2017-05-20T17:57:46.713Z,6.54
2017-05-20T18:00:15.041Z,23.88
2017-05-20T18:02:43.386Z,5.46
2017-05-20T18:05:13.020Z,4.48
2017-05-20T18:07:41.331Z,3.98
2017-05-20T18:10:09.646Z,4.52
2017-05-20T18:12:37.966Z,4.46
2017-05-20T18:15:06.276Z,4.44
2017-05-20T18:17:34.603Z,5.08
2017-05-20T18:20:02.916Z,4.08
2017-05-20T18:22:31.221Z,4.60
2017-05-20T18:24:59.599Z,5.12
2017-05-20T18:27:27.910Z,4.92
2017-05-20T18:29:56.225Z,5.04
2017-05-20T18:32:24.564Z,4.84
2017-05-20T18:34:52.895Z,5.10
2017-05-20T18:37:21.220Z,4.70
2017-05-20T18:39:49.544Z,15.26
2017-05-20T18:42:17.861Z,16.14
2017-05-20T18:44:46.183Z,8.30
2017-05-20T18:47:14.900Z,5.50
2017-05-20T18:49:43.244Z,5.74
2017-05-20T18:52:11.558Z,5.68
2017-05-20T18:54:40.684Z,8.64
2017-05-20T18:57:09.041Z,9.56
2017-05-20T18:59:37.363Z,32.90
2017-05-20T19:02:05.679Z,7.44
2017-05-20T19:04:33.985Z,6.60
2017-05-20T19:07:02.304Z,6.72
2017-05-20T19:09:30.712Z,5.80
2017-05-20T19:11:59.091Z,6.00
2017-05-20T19:14:27.409Z,9.16
2017-05-20T19:16:55.727Z,4.94
2017-05-20T19:19:24.036Z,5.80
2017-05-20T19:21:52.351Z,5.16
2017-05-20T19:24:20.669Z,5.58
2017-05-20T19:26:48.994Z,31.66
2017-05-20T19:29:17.324Z,31.96
2017-05-20T19:31:45.653Z,7.06
2017-05-20T19:34:13.958Z,6.22
2017-05-20T19:36:42.272Z,6.56
2017-05-20T19:39:10.587Z,5.54
2017-05-20T19:41:38.895Z,5.46
2017-05-20T19:44:07.287Z,7.98
2017-05-20T19:46:35.604Z,6.46
2017-05-20T19:49:03.917Z,6.72
2017-05-20T19:51:32.224Z,6.22
2017-05-20T19:54:00.929Z,6.58
2017-05-20T19:56:29.238Z,5.96
2017-05-20T19:58:57.556Z,6.64
2017-05-20T20:01:25.871Z,5.52
2017-05-20T20:03:54.230Z,5.32
2017-05-20T20:06:22.542Z,5.30
2017-05-20T20:08:50.863Z,6.24
2017-05-20T20:11:19.170Z,6.54
2017-05-20T20:13:47.486Z,6.78
2017-05-20T20:16:15.821Z,6.56
2017-05-20T20:18:44.132Z,5.98
2017-05-20T20:21:12.468Z,15.22
2017-05-20T20:23:40.790Z,6.80
2017-05-20T20:26:09.111Z,6.26
2017-05-20T20:28:37.436Z,6.14
2017-05-20T20:31:05.759Z,6.34
2017-05-20T20:33:34.065Z,6.30
2017-05-20T20:36:02.372Z,6.12
2017-05-20T20:38:30.701Z,6.74
2017-05-20T20:40:59.015Z,6.24
2017-05-20T20:43:27.320Z,6.78
2017-05-20T20:45:55.637Z,6.54
2017-05-20T20:48:23.955Z,6.22
2017-05-20T20:50:52.263Z,7.00
2017-05-20T20:53:20.571Z,7.52
2017-05-20T20:55:48.887Z,18.36
2017-05-20T20:58:17.205Z,22.84
2017-05-20T21:00:45.524Z,7.24
2017-05-20T21:03:13.838Z,7.56
2017-05-20T21:05:42.147Z,6.60
2017-05-20T21:08:10.727Z,9.04
2017-05-20T21:10:39.103Z,6.20
2017-05-20T21:13:07.416Z,6.76
2017-05-20T21:15:35.739Z,15.88
2017-05-20T21:18:04.056Z,11.18
2017-05-20T21:20:32.367Z,8.14
2017-05-20T21:23:00.683Z,6.38
2017-05-20T21:25:28.989Z,6.84
2017-05-20T21:27:57.307Z,5.82
2017-05-20T21:30:25.623Z,7.30
2017-05-20T21:32:53.936Z,8.22
2017-05-20T21:35:22.251Z,7.66
2017-05-20T21:37:50.564Z,6.50
2017-05-20T21:40:18.863Z,7.06
2017-05-20T21:42:47.168Z,6.24
2017-05-20T21:45:15.489Z,6.32
2017-05-20T21:47:43.821Z,5.92
2017-05-20T21:50:12.128Z,7.04
2017-05-20T21:52:40.455Z,6.70
2017-05-20T21:55:08.764Z,6.70
2017-05-20T21:57:37.076Z,7.78
2017-05-20T22:00:05.451Z,7.52
2017-05-20T22:02:33.756Z,6.48
2017-05-20T22:05:02.076Z,9.44
2017-05-20T22:07:30.396Z,6.02
2017-05-20T22:09:58.700Z,6.36
2017-05-20T22:12:27.008Z,6.64
2017-05-20T22:14:55.324Z,7.10
2017-05-20T22:17:23.649Z,6.82
2017-05-20T22:19:51.959Z,5.80
2017-05-20T22:22:20.306Z,6.68
2017-05-20T22:24:48.612Z,6.50
2017-05-20T22:27:16.927Z,6.34
2017-05-20T22:29:45.243Z,9.34
2017-05-20T22:32:13.549Z,5.98
2017-05-20T22:34:41.888Z,5.26
2017-05-20T22:37:10.212Z,5.90
2017-05-20T22:39:38.528Z,5.14
2017-05-20T22:42:06.849Z,6.56
2017-05-20T22:44:35.163Z,5.40
2017-05-20T22:47:03.475Z,5.92
2017-05-20T22:49:31.790Z,6.36
2017-05-20T22:52:00.109Z,5.86
2017-05-20T22:54:28.419Z,6.64
2017-05-20T22:56:56.724Z,5.12
2017-05-20T22:59:25.049Z,4.92
2017-05-20T23:01:53.356Z,4.98
2017-05-20T23:04:21.676Z,5.46
2017-05-20T23:06:49.992Z,6.42
2017-05-20T23:09:18.305Z,5.64
2017-05-20T23:11:46.617Z,5.60
2017-05-20T23:14:14.936Z,5.48
2017-05-20T23:16:43.251Z,7.98
2017-05-20T23:19:11.555Z,5.76
2017-05-20T23:21:40.088Z,5.96
2017-05-20T23:24:08.387Z,5.22
2017-05-20T23:26:36.688Z,5.40
2017-05-20T23:29:05.005Z,5.44
2017-05-20T23:31:33.311Z,5.18
2017-05-20T23:34:01.620Z,5.44
2017-05-20T23:36:29.935Z,4.80
2017-05-20T23:38:58.251Z,5.18
2017-05-20T23:41:26.559Z,5.74
2017-05-20T23:43:54.868Z,5.22
2017-05-20T23:46:23.208Z,4.48
2017-05-20T23:48:51.511Z,4.82
2017-05-20T23:51:19.827Z,5.00
2017-05-20T23:53:48.133Z,5.46
2017-05-20T23:56:16.463Z,4.88
2017-05-20T23:58:44.795Z,7.30
